Time;durP1;ratioP1;P1;durP2;ratioP2;P2;SDS_P1;SDS_P2;PMS_P1;PMS_P2;Temp;Humidity;BMP_temperature;BMP_pressure;BME280_temperature;BME280_humidity;BME280_pressure;Samples;Min_cycle;Max_cycle;Signal;HPM_P1;HPM_P2
2022/11/06 00:00:13;;;;;;;4.07;2.90;;;6.20;99.90;;;;;;5111970;28;20528;-47
2022/11/06 00:02:40;;;;;;;2.73;2.33;;;6.30;99.90;;;;;;5112144;28;20969;-47
2022/11/06 00:07:54;;;;;;;3.83;2.87;;;6.40;99.90;;;;;;5112197;28;20445;-47
2022/11/06 00:10:21;;;;;;;3.30;2.87;;;6.50;99.90;;;;;;5112090;28;20463;-47
2022/11/06 00:12:48;;;;;;;3.07;2.43;;;6.50;99.90;;;;;;5111875;28;20905;-47
2022/11/06 00:15:15;;;;;;;4.73;3.27;;;6.50;99.90;;;;;;5113143;28;20549;-47
2022/11/06 00:17:42;;;;;;;4.80;2.57;;;6.50;99.90;;;;;;5111846;28;20435;-49
2022/11/06 00:20:10;;;;;;;4.40;2.53;;;6.50;99.90;;;;;;5111568;28;20526;-47
2022/11/06 00:22:37;;;;;;;2.90;2.33;;;6.50;99.90;;;;;;5111856;28;20942;-47
2022/11/06 00:25:07;;;;;;;2.70;2.30;;;6.60;99.90;;;;;;5111634;28;20501;-48
2022/11/06 00:27:35;;;;;;;4.80;2.90;;;6.60;99.90;;;;;;5111809;28;20439;-47
2022/11/06 00:30:02;;;;;;;2.90;2.60;;;6.60;99.90;;;;;;5111812;28;20526;-48
2022/11/06 00:32:29;;;;;;;6.50;3.00;;;6.70;99.90;;;;;;5111469;28;20987;-48
2022/11/06 00:34:56;;;;;;;4.23;3.10;;;6.60;99.90;;;;;;5111172;28;20549;-49
2022/11/06 00:37:23;;;;;;;4.43;3.10;;;6.20;99.90;;;;;;5112040;28;20534;-48
2022/11/06 00:39:50;;;;;;;3.70;3.27;;;6.10;99.90;;;;;;5111801;28;20528;-49
2022/11/06 00:42:18;;;;;;;4.03;3.20;;;6.20;99.90;;;;;;5113466;28;20530;-47
2022/11/06 00:44:45;;;;;;;3.43;3.10;;;6.40;99.90;;;;;;5115489;28;20504;-47
2022/11/06 00:47:12;;;;;;;3.23;2.63;;;6.50;99.90;;;;;;5115714;28;20483;-49
2022/11/06 00:49:38;;;;;;;5.10;3.77;;;6.60;99.90;;;;;;5115399;28;20439;-47
2022/11/06 00:52:05;;;;;;;5.77;3.83;;;6.60;99.90;;;;;;5115772;28;20518;-47
2022/11/06 00:54:32;;;;;;;4.40;3.67;;;6.60;99.90;;;;;;5115560;28;21028;-47
2022/11/06 00:56:59;;;;;;;4.20;3.57;;;6.50;99.90;;;;;;5115410;28;20447;-47
2022/11/06 00:59:27;;;;;;;5.30;4.30;;;6.10;99.90;;;;;;5115567;28;20522;-46
2022/11/06 01:01:54;;;;;;;5.50;5.00;;;5.70;99.90;;;;;;5115746;28;20520;-50
2022/11/06 01:04:23;;;;;;;5.43;4.77;;;6.00;99.90;;;;;;5114698;28;20456;-46
2022/11/06 01:06:52;;;;;;;5.40;4.23;;;6.10;99.90;;;;;;5115551;28;20471;-47
2022/11/06 01:09:22;;;;;;;5.30;4.50;;;6.10;99.90;;;;;;5115955;28;20927;-49
2022/11/06 01:11:51;;;;;;;5.90;4.40;;;6.00;99.90;;;;;;5115672;28;21032;-48
2022/11/06 01:14:20;;;;;;;4.63;3.80;;;6.20;99.90;;;;;;5115282;27;20473;-47
2022/11/06 01:16:49;;;;;;;4.43;3.53;;;6.30;99.90;;;;;;5115774;28;20536;-47
2022/11/06 01:19:18;;;;;;;5.43;4.20;;;6.40;99.90;;;;;;5115302;28;20988;-47
2022/11/06 01:21:47;;;;;;;5.30;4.00;;;6.40;99.90;;;;;;5115296;28;20527;-47
2022/11/06 01:24:16;;;;;;;4.57;4.07;;;6.40;99.90;;;;;;5114798;28;20962;-48
2022/11/06 01:26:43;;;;;;;4.63;4.17;;;6.40;99.90;;;;;;5115288;28;20445;-47
2022/11/06 01:29:13;;;;;;;6.10;3.83;;;6.40;99.90;;;;;;5115528;28;20442;-47
2022/11/06 01:31:40;;;;;;;4.20;3.83;;;6.40;99.90;;;;;;5115081;28;20529;-49
2022/11/06 01:34:10;;;;;;;4.47;3.90;;;6.30;99.90;;;;;;5114517;28;20561;-47
2022/11/06 01:36:38;;;;;;;6.30;3.80;;;6.30;99.90;;;;;;5114842;28;20528;-47
2022/11/06 01:39:07;;;;;;;5.77;4.47;;;6.40;99.90;;;;;;5115102;28;20443;-50
2022/11/06 01:41:36;;;;;;;6.10;4.37;;;6.40;99.90;;;;;;5114975;28;20478;-47
2022/11/06 01:44:06;;;;;;;5.37;4.47;;;6.40;99.90;;;;;;5114572;28;20533;-50
2022/11/06 01:46:35;;;;;;;5.03;3.77;;;6.50;99.90;;;;;;5114815;28;20527;-47
2022/11/06 01:49:06;;;;;;;4.20;3.73;;;6.30;99.90;;;;;;5114263;28;20453;-47
2022/11/06 01:51:38;;;;;;;5.00;4.00;;;6.30;99.90;;;;;;5114926;28;20474;-47
2022/11/06 01:54:07;;;;;;;4.33;3.80;;;6.40;99.90;;;;;;5114141;28;20583;-47
2022/11/06 01:56:36;;;;;;;5.07;4.07;;;6.50;99.90;;;;;;5114527;28;20971;-47
2022/11/06 01:59:04;;;;;;;4.10;3.67;;;6.50;99.90;;;;;;5114530;28;20534;-47
2022/11/06 02:01:31;;;;;;;4.40;4.00;;;6.40;99.90;;;;;;5114647;28;20445;-47
2022/11/06 02:04:04;;;;;;;4.70;4.20;;;6.50;99.90;;;;;;5114238;28;20439;-47
2022/11/06 02:06:32;;;;;;;5.73;4.03;;;6.50;99.90;;;;;;5114250;28;20441;-47
2022/11/06 02:09:01;;;;;;;4.10;3.70;;;6.50;99.90;;;;;;5114251;28;20487;-48
2022/11/06 02:11:28;;;;;;;4.47;3.90;;;6.60;99.90;;;;;;5114117;28;20486;-47
2022/11/06 02:14:06;;;;;;;4.93;3.80;;;6.40;99.90;;;;;;5113759;28;20471;-48
2022/11/06 02:16:40;;;;;;;5.40;4.83;;;6.50;99.90;;;;;;5114218;28;20525;-49
2022/11/06 02:19:35;;;;;;;9.70;6.17;;;6.30;99.90;;;;;;5114224;28;20529;-48
2022/11/06 02:22:18;;;;;;;5.63;5.03;;;6.30;99.90;;;;;;5114258;28;20454;-47
2022/11/06 02:25:02;;;;;;;7.13;6.10;;;6.20;99.90;;;;;;5113669;28;20967;-47
2022/11/06 02:27:32;;;;;;;3.83;3.43;;;6.20;99.90;;;;;;5114051;28;20502;-47
2022/11/06 02:30:02;;;;;;;5.20;4.80;;;6.10;99.90;;;;;;5113878;28;20995;-47
2022/11/06 02:32:35;;;;;;;3.80;3.50;;;6.20;99.90;;;;;;5113469;28;20551;-47
2022/11/06 02:35:11;;;;;;;3.70;3.20;;;6.20;99.90;;;;;;5113871;28;20486;-49
2022/11/06 02:37:41;;;;;;;4.50;4.10;;;6.20;99.90;;;;;;5114108;28;20492;-47
2022/11/06 02:40:11;;;;;;;3.83;3.43;;;6.20;99.90;;;;;;5114080;28;20751;-47
2022/11/06 02:42:43;;;;;;;5.90;3.77;;;6.30;99.90;;;;;;5113698;28;20873;-47
2022/11/06 02:45:14;;;;;;;5.73;4.00;;;6.20;99.90;;;;;;5113267;28;20461;-47
2022/11/06 02:47:42;;;;;;;4.27;3.60;;;6.20;99.90;;;;;;5113606;28;20439;-45
2022/11/06 02:50:12;;;;;;;4.70;4.30;;;6.20;99.90;;;;;;5113686;28;20534;-47
2022/11/06 02:52:42;;;;;;;3.30;3.00;;;6.30;99.90;;;;;;5113799;28;20480;-47
2022/11/06 02:55:14;;;;;;;3.60;2.33;;;6.30;99.90;;;;;;5113452;28;20490;-48
2022/11/06 02:57:49;;;;;;;4.20;3.03;;;6.40;99.90;;;;;;5113444;28;20449;-48
2022/11/06 03:00:17;;;;;;;2.90;2.60;;;6.40;99.90;;;;;;5113270;28;20532;-49
2022/11/06 03:02:50;;;;;;;3.70;3.33;;;6.40;99.90;;;;;;5113433;28;20490;-47
2022/11/06 03:05:21;;;;;;;3.70;3.30;;;6.10;99.90;;;;;;5112745;28;20504;-48
2022/11/06 03:07:55;;;;;;;4.13;3.03;;;6.20;99.90;;;;;;5112946;28;20467;-49
2022/11/06 03:10:26;;;;;;;3.90;2.90;;;6.30;99.90;;;;;;5113190;28;21012;-47
2022/11/06 03:12:56;;;;;;;3.97;3.10;;;6.20;99.90;;;;;;5113159;28;20477;-47
2022/11/06 03:15:33;;;;;;;2.90;2.70;;;6.20;99.90;;;;;;5113097;28;20508;-47
2022/11/06 03:18:10;;;;;;;3.00;2.47;;;6.40;99.90;;;;;;5112917;28;20876;-47
2022/11/06 03:20:41;;;;;;;3.13;2.80;;;6.20;99.90;;;;;;5112998;28;20477;-47
2022/11/06 03:23:15;;;;;;;3.20;2.90;;;6.30;99.90;;;;;;5112851;28;20519;-46
2022/11/06 03:25:46;;;;;;;4.30;3.00;;;6.40;99.90;;;;;;5112684;28;20987;-47
2022/11/06 03:28:23;;;;;;;3.47;2.37;;;6.30;99.90;;;;;;5112602;28;20453;-50
2022/11/06 03:30:53;;;;;;;2.60;2.27;;;6.10;99.90;;;;;;5112982;28;20478;-47
2022/11/06 03:33:24;;;;;;;4.00;2.30;;;6.20;99.90;;;;;;5112784;28;20568;-49
2022/11/06 03:35:56;;;;;;;3.07;2.43;;;6.20;99.90;;;;;;5112859;28;20824;-46
2022/11/06 03:38:28;;;;;;;3.63;2.33;;;6.30;99.90;;;;;;5113295;28;20518;-47
2022/11/06 03:41:00;;;;;;;2.80;1.87;;;6.30;99.90;;;;;;5112585;28;20469;-47
2022/11/06 03:43:33;;;;;;;2.90;1.70;;;6.30;99.90;;;;;;5112775;28;20435;-47
2022/11/06 03:46:04;;;;;;;2.43;2.20;;;6.30;99.90;;;;;;5112638;28;20542;-47
2022/11/06 03:48:34;;;;;;;2.30;2.10;;;6.30;99.90;;;;;;5112142;28;20453;-50
2022/11/06 03:51:05;;;;;;;2.10;1.80;;;6.00;99.90;;;;;;5112635;28;20861;-47
2022/11/06 03:53:37;;;;;;;1.93;1.73;;;6.10;99.90;;;;;;5112058;28;20477;-47
2022/11/06 03:56:09;;;;;;;2.03;1.40;;;6.10;99.90;;;;;;5112711;28;20534;-46
2022/11/06 03:58:42;;;;;;;1.70;1.57;;;6.00;99.90;;;;;;5113226;28;20443;-48
2022/11/06 04:01:10;;;;;;;1.67;1.57;;;5.30;99.90;;;;;;5112177;28;20451;-46
2022/11/06 04:03:42;;;;;;;1.30;1.17;;;5.10;99.90;;;;;;5112132;28;20774;-47
2022/11/06 04:06:13;;;;;;;1.90;1.33;;;5.40;99.90;;;;;;5112241;28;20535;-47
2022/11/06 04:14:16;;;;;;;2.00;1.40;;;5.90;99.90;;;;;;5111773;28;20482;-46
2022/11/06 04:16:47;;;;;;;1.40;1.03;;;5.80;99.90;;;;;;5111649;28;20443;-46
2022/11/06 04:19:16;;;;;;;2.03;1.67;;;5.80;99.90;;;;;;5111967;28;20471;-46
2022/11/06 04:22:03;;;;;;;2.03;1.40;;;5.80;99.90;;;;;;5112053;28;20452;-47
2022/11/06 04:27:35;;;;;;;2.40;1.63;;;5.70;99.90;;;;;;5111957;28;20428;-47
2022/11/06 04:30:07;;;;;;;2.10;1.50;;;5.80;99.90;;;;;;5112042;28;20527;-47
2022/11/06 04:32:57;;;;;;;2.93;1.30;;;5.70;99.90;;;;;;5111818;28;20521;-48
2022/11/06 04:35:31;;;;;;;2.07;1.40;;;5.60;99.90;;;;;;5111731;28;20537;-49
2022/11/06 04:38:03;;;;;;;1.53;1.20;;;5.60;99.90;;;;;;5111550;28;20941;-47
2022/11/06 04:40:37;;;;;;;1.50;1.40;;;5.70;99.90;;;;;;5111808;28;20441;-48
2022/11/06 04:43:07;;;;;;;1.90;1.60;;;5.80;99.90;;;;;;5111595;28;20442;-47
2022/11/06 04:45:40;;;;;;;2.00;1.40;;;5.80;99.90;;;;;;5111465;28;20465;-47
2022/11/06 04:48:08;;;;;;;2.23;1.90;;;5.80;99.90;;;;;;5111211;28;20931;-47
2022/11/06 04:50:41;;;;;;;1.73;1.63;;;5.80;99.90;;;;;;5111643;28;20486;-47
2022/11/06 04:53:10;;;;;;;3.90;1.80;;;5.80;99.90;;;;;;5111358;28;20524;-47
2022/11/06 04:55:45;;;;;;;2.13;1.20;;;5.80;99.90;;;;;;5111560;28;20492;-46
2022/11/06 04:58:12;;;;;;;3.77;1.20;;;5.30;99.90;;;;;;5111559;28;20462;-47
2022/11/06 05:00:44;;;;;;;1.67;1.37;;;4.90;99.90;;;;;;5111733;28;20441;-46
2022/11/06 05:03:11;;;;;;;2.13;1.70;;;4.80;99.90;;;;;;5111503;28;20519;-49
2022/11/06 05:05:38;;;;;;;1.90;1.50;;;4.80;99.90;;;;;;5111312;28;20707;-47
2022/11/06 05:08:05;;;;;;;3.73;2.40;;;4.90;99.90;;;;;;5111491;28;20460;-46
2022/11/06 05:10:32;;;;;;;3.17;2.70;;;4.50;99.90;;;;;;5111484;28;21015;-46
2022/11/06 05:12:59;;;;;;;3.00;2.03;;;4.30;99.90;;;;;;5111057;28;20440;-47
2022/11/06 05:15:27;;;;;;;2.53;1.70;;;4.10;99.90;;;;;;5111271;28;20557;-48
2022/11/06 05:17:57;;;;;;;2.63;2.10;;;4.20;99.90;;;;;;5111283;28;20450;-46
2022/11/06 05:20:24;;;;;;;2.87;1.90;;;4.20;99.90;;;;;;5111616;28;20440;-47
2022/11/06 05:22:59;;;;;;;3.00;2.57;;;4.20;99.90;;;;;;5111144;28;20531;-44
2022/11/06 05:25:28;;;;;;;3.33;2.27;;;4.20;99.90;;;;;;5111288;28;20497;-47
2022/11/06 05:27:55;;;;;;;2.90;1.60;;;4.40;99.90;;;;;;5112343;28;20466;-50
2022/11/06 05:30:23;;;;;;;2.00;1.60;;;4.70;99.90;;;;;;5115225;28;20440;-47
2022/11/06 05:32:49;;;;;;;2.17;1.53;;;4.90;99.90;;;;;;5114777;28;20440;-47
2022/11/06 05:35:19;;;;;;;4.20;1.13;;;5.10;99.90;;;;;;5114996;28;20519;-47
2022/11/06 05:37:46;;;;;;;1.50;1.07;;;5.10;99.90;;;;;;5115096;28;20822;-48
2022/11/06 05:40:13;;;;;;;1.70;1.20;;;5.10;99.90;;;;;;5114877;28;20891;-46
2022/11/06 05:42:42;;;;;;;3.70;1.23;;;5.20;99.90;;;;;;5114966;28;20440;-46
2022/11/06 05:45:10;;;;;;;1.60;1.03;;;5.20;99.90;;;;;;5114485;28;20547;-46
2022/11/06 05:47:40;;;;;;;1.37;1.10;;;5.00;99.90;;;;;;5114818;28;20448;-46
2022/11/06 05:50:07;;;;;;;1.20;0.90;;;5.00;99.90;;;;;;5114703;28;20467;-48
2022/11/06 05:52:37;;;;;;;2.93;1.27;;;5.10;99.90;;;;;;5114471;28;20821;-49
2022/11/06 05:55:04;;;;;;;1.30;1.00;;;5.20;99.90;;;;;;5114779;28;20483;-46
2022/11/06 05:57:31;;;;;;;1.63;1.10;;;5.20;99.90;;;;;;5114596;28;20785;-47
2022/11/06 05:59:58;;;;;;;1.80;1.40;;;5.30;99.90;;;;;;5114453;28;20450;-47
2022/11/06 06:02:25;;;;;;;1.40;1.13;;;5.20;99.90;;;;;;5115109;28;20483;-47
2022/11/06 06:04:52;;;;;;;1.50;1.10;;;5.10;99.90;;;;;;5114500;28;20885;-46
2022/11/06 06:07:18;;;;;;;2.27;2.07;;;4.90;99.90;;;;;;5114088;28;20440;-47
2022/11/06 06:09:47;;;;;;;2.00;1.80;;;5.00;99.90;;;;;;5114301;28;20444;-49
2022/11/06 06:12:15;;;;;;;1.97;1.53;;;5.20;99.90;;;;;;5114547;28;20530;-48
2022/11/06 06:14:42;;;;;;;1.60;1.47;;;5.30;99.90;;;;;;5114959;28;21031;-47
2022/11/06 06:17:08;;;;;;;1.37;1.13;;;5.30;99.90;;;;;;5114051;28;20444;-46
2022/11/06 06:19:35;;;;;;;1.23;0.63;;;5.30;99.90;;;;;;5114242;28;20446;-47
2022/11/06 06:22:02;;;;;;;1.37;0.90;;;4.80;99.90;;;;;;5114217;28;20436;-51
2022/11/06 06:24:29;;;;;;;1.60;1.13;;;4.90;99.90;;;;;;5113783;28;20480;-46
2022/11/06 06:26:57;;;;;;;1.97;1.03;;;4.90;99.90;;;;;;5114303;28;20542;-46
2022/11/06 06:29:24;;;;;;;1.70;1.00;;;4.90;99.90;;;;;;5114351;28;20444;-46
2022/11/06 06:31:51;;;;;;;1.17;0.70;;;4.80;99.90;;;;;;5114086;28;20530;-48
2022/11/06 06:34:18;;;;;;;1.10;0.70;;;4.90;99.90;;;;;;5113488;28;21108;-47
2022/11/06 06:36:48;;;;;;;1.60;1.07;;;5.00;99.90;;;;;;5113669;28;20840;-46
2022/11/06 06:39:15;;;;;;;2.70;1.60;;;4.90;99.90;;;;;;5113388;28;20523;-46
2022/11/06 06:41:42;;;;;;;12.60;5.93;;;4.80;99.90;;;;;;5113892;28;20908;-47
2022/11/06 06:44:10;;;;;;;11.40;5.70;;;4.80;99.90;;;;;;5114421;28;20538;-46
2022/11/06 06:46:37;;;;;;;6.47;4.00;;;4.70;99.90;;;;;;5114603;28;20532;-46
2022/11/06 06:49:04;;;;;;;10.83;5.33;;;4.80;99.90;;;;;;5113501;28;20862;-49
2022/11/06 06:51:31;;;;;;;4.50;2.80;;;4.80;99.90;;;;;;5113757;28;20439;-47
2022/11/06 06:53:58;;;;;;;2.70;2.20;;;4.80;99.90;;;;;;5112919;28;20474;-46
2022/11/06 06:56:25;;;;;;;3.80;2.50;;;4.90;99.90;;;;;;5113489;28;20534;-46
2022/11/06 06:58:54;;;;;;;2.47;2.27;;;4.80;99.90;;;;;;5113228;28;20443;-46
2022/11/06 07:01:22;;;;;;;2.33;1.90;;;4.60;99.90;;;;;;5113612;28;20542;-49
2022/11/06 07:03:49;;;;;;;5.73;3.80;;;4.60;99.90;;;;;;5113256;28;20527;-48
2022/11/06 07:06:18;;;;;;;4.00;2.03;;;4.40;99.90;;;;;;5113124;28;20462;-47
2022/11/06 07:08:45;;;;;;;1.20;0.93;;;4.40;99.90;;;;;;5113436;28;20440;-47
2022/11/06 07:11:12;;;;;;;1.40;0.90;;;4.50;99.90;;;;;;5113314;28;20478;-47
2022/11/06 07:13:39;;;;;;;3.73;1.30;;;4.60;99.90;;;;;;5112769;28;20446;-47
2022/11/06 07:16:07;;;;;;;7.13;5.40;;;4.70;99.90;;;;;;5113054;28;20566;-49
2022/11/06 07:18:37;;;;;;;11.43;6.50;;;4.80;99.90;;;;;;5113373;28;20479;-47
2022/11/06 07:21:05;;;;;;;7.07;5.90;;;4.80;99.90;;;;;;5112953;28;21130;-46
2022/11/06 07:23:32;;;;;;;7.40;5.00;;;4.80;99.90;;;;;;5112712;28;20439;-47
2022/11/06 07:25:59;;;;;;;4.30;3.20;;;4.80;99.90;;;;;;5112957;28;20457;-47
2022/11/06 07:28:26;;;;;;;4.03;2.53;;;4.80;99.90;;;;;;5113260;28;20522;-47
2022/11/06 07:30:57;;;;;;;2.53;2.17;;;4.70;99.90;;;;;;5112953;28;20481;-48
2022/11/06 07:33:24;;;;;;;2.67;1.90;;;4.80;99.90;;;;;;5112490;28;20889;-47
2022/11/06 07:35:52;;;;;;;1.80;1.50;;;4.90;99.90;;;;;;5112598;28;20482;-49
2022/11/06 07:38:19;;;;;;;2.80;1.10;;;4.80;99.90;;;;;;5113242;28;20469;-50
2022/11/06 07:40:46;;;;;;;1.50;1.03;;;4.80;99.90;;;;;;5112732;28;20520;-47
2022/11/06 07:43:13;;;;;;;1.30;0.90;;;4.90;99.90;;;;;;5112231;28;20933;-48
2022/11/06 07:45:40;;;;;;;1.70;1.40;;;4.70;99.90;;;;;;5112765;28;20454;-48
2022/11/06 07:48:07;;;;;;;1.43;1.30;;;4.70;99.90;;;;;;5112150;28;20565;-48
2022/11/06 07:50:34;;;;;;;6.57;4.40;;;4.70;99.90;;;;;;5112179;28;20483;-49
2022/11/06 07:53:03;;;;;;;13.77;8.50;;;4.50;99.90;;;;;;5112340;28;20446;-48
2022/11/06 07:55:30;;;;;;;8.87;6.13;;;4.10;99.90;;;;;;5112200;28;20570;-48
2022/11/06 07:57:58;;;;;;;8.70;5.57;;;4.40;99.90;;;;;;5112321;28;20732;-48
2022/11/06 08:00:25;;;;;;;6.97;4.33;;;4.50;99.90;;;;;;5112128;28;20534;-48
2022/11/06 08:02:52;;;;;;;4.47;3.80;;;4.50;99.90;;;;;;5111971;28;20945;-47
2022/11/06 08:05:19;;;;;;;5.87;5.00;;;3.90;99.90;;;;;;5112194;28;20460;-48
2022/11/06 08:07:46;;;;;;;7.53;4.53;;;3.70;99.90;;;;;;5112036;28;20805;-48
2022/11/06 08:10:15;;;;;;;6.40;3.70;;;3.60;99.90;;;;;;5112226;28;20446;-49
2022/11/06 08:12:41;;;;;;;5.70;4.10;;;3.50;99.90;;;;;;5111878;28;20521;-48
2022/11/06 08:15:09;;;;;;;10.00;7.47;;;3.90;99.90;;;;;;5111687;28;20569;-48
2022/11/06 08:17:36;;;;;;;4.37;3.80;;;4.20;99.90;;;;;;5112070;28;20534;-49
2022/11/06 08:20:03;;;;;;;2.53;2.10;;;4.40;99.90;;;;;;5111859;28;20447;-48
2022/11/06 08:22:30;;;;;;;4.17;3.07;;;4.20;99.90;;;;;;5112060;28;20871;-48
2022/11/06 08:24:57;;;;;;;4.20;3.80;;;4.30;99.90;;;;;;5111524;28;20459;-48
2022/11/06 08:27:25;;;;;;;3.67;2.50;;;4.60;99.90;;;;;;5111851;28;20539;-48
2022/11/06 08:29:52;;;;;;;3.13;2.50;;;4.70;99.90;;;;;;5111932;28;20439;-47
2022/11/06 08:32:19;;;;;;;5.27;3.67;;;4.80;99.90;;;;;;5112114;28;20531;-48
2022/11/06 08:34:45;;;;;;;4.60;4.20;;;4.80;99.90;;;;;;5111181;28;20559;-48
2022/11/06 08:37:12;;;;;;;4.70;3.73;;;4.80;99.90;;;;;;5111967;28;20526;-48
2022/11/06 08:39:39;;;;;;;4.30;3.63;;;4.70;99.90;;;;;;5111767;28;20530;-48
2022/11/06 08:42:07;;;;;;;4.20;3.50;;;4.20;99.90;;;;;;5112066;28;20526;-48
2022/11/06 08:44:35;;;;;;;4.00;2.87;;;4.00;99.90;;;;;;5112179;28;20539;-48
2022/11/06 08:47:02;;;;;;;3.97;2.90;;;3.90;99.90;;;;;;5111721;28;20449;-49
2022/11/06 08:49:28;;;;;;;4.03;3.70;;;4.20;99.90;;;;;;5111864;28;20470;-49
2022/11/06 08:51:55;;;;;;;3.23;2.97;;;4.40;99.90;;;;;;5111612;28;20436;-48
2022/11/06 08:54:22;;;;;;;3.33;2.60;;;4.50;99.90;;;;;;5111577;28;20568;-48
2022/11/06 08:56:49;;;;;;;2.60;2.20;;;4.70;99.90;;;;;;5111792;28;20451;-48
2022/11/06 08:59:16;;;;;;;2.70;1.87;;;4.90;99.90;;;;;;5111711;28;20881;-48
2022/11/06 09:01:44;;;;;;;2.03;1.83;;;5.00;99.90;;;;;;5111649;28;20529;-46
2022/11/06 09:04:11;;;;;;;1.50;1.33;;;4.60;99.90;;;;;;5114627;28;20550;-46
2022/11/06 09:06:38;;;;;;;1.50;1.40;;;4.70;99.90;;;;;;5115417;28;20535;-47
2022/11/06 09:09:05;;;;;;;1.27;1.07;;;4.90;99.90;;;;;;5115756;28;20445;-48
2022/11/06 09:11:32;;;;;;;1.23;0.90;;;5.00;99.90;;;;;;5115792;28;20518;-46
2022/11/06 09:13:59;;;;;;;4.67;1.70;;;5.10;99.90;;;;;;5114676;28;20530;-47
2022/11/06 09:16:26;;;;;;;1.40;1.00;;;5.20;99.90;;;;;;5115645;28;20475;-46
2022/11/06 09:18:56;;;;;;;2.60;2.13;;;5.20;99.90;;;;;;5115362;28;20897;-46
2022/11/06 09:21:23;;;;;;;3.50;2.80;;;5.30;99.90;;;;;;5115425;28;20532;-46
2022/11/06 09:23:51;;;;;;;3.73;2.57;;;5.50;99.90;;;;;;5114969;28;20541;-47
2022/11/06 09:26:18;;;;;;;1.40;1.20;;;5.60;99.90;;;;;;5115326;28;20463;-50
2022/11/06 09:28:46;;;;;;;1.50;1.30;;;5.60;99.90;;;;;;5115082;28;20479;-47
2022/11/06 09:31:12;;;;;;;2.57;1.70;;;5.40;99.90;;;;;;5115093;28;20447;-47
2022/11/06 09:33:39;;;;;;;2.73;1.80;;;5.40;99.90;;;;;;5114523;28;20532;-47
2022/11/06 09:36:08;;;;;;;1.90;1.30;;;5.60;99.90;;;;;;5115443;28;20488;-50
2022/11/06 09:38:35;;;;;;;1.87;1.30;;;5.70;99.90;;;;;;5115028;28;20434;-47
2022/11/06 09:41:03;;;;;;;1.57;1.20;;;6.00;99.90;;;;;;5114912;28;20526;-47
2022/11/06 09:43:54;;;;;;;1.27;1.03;;;6.10;99.90;;;;;;5114992;28;20524;-48
2022/11/06 09:46:23;;;;;;;1.93;1.20;;;6.20;99.90;;;;;;5114823;28;21056;-48
2022/11/06 09:48:56;;;;;;;1.20;0.73;;;6.40;99.90;;;;;;5114832;28;20525;-48
2022/11/06 09:51:33;;;;;;;1.80;0.90;;;6.50;99.90;;;;;;5114893;28;20441;-48
2022/11/06 09:54:06;;;;;;;1.07;0.60;;;6.50;99.90;;;;;;5114362;28;20476;-48
2022/11/06 09:56:38;;;;;;;1.27;0.83;;;6.50;99.90;;;;;;5114765;28;20510;-47
2022/11/06 09:59:11;;;;;;;1.30;0.80;;;6.60;99.90;;;;;;5114382;28;20562;-47
2022/11/06 10:01:42;;;;;;;1.77;1.33;;;6.70;99.90;;;;;;5114618;28;20453;-47
2022/11/06 10:04:20;;;;;;;1.70;0.93;;;6.70;99.90;;;;;;5114338;28;20490;-47
2022/11/06 10:06:49;;;;;;;1.10;0.80;;;6.60;99.90;;;;;;5114353;28;20521;-47
2022/11/06 10:09:16;;;;;;;1.03;0.60;;;6.50;99.90;;;;;;5114549;28;20443;-47
2022/11/06 10:11:58;;;;;;;1.10;0.80;;;6.60;99.90;;;;;;5114437;28;20444;-47
2022/11/06 10:14:47;;;;;;;1.00;0.60;;;6.60;99.90;;;;;;5112857;28;21041;-50
2022/11/06 10:17:26;;;;;;;1.40;0.63;;;6.60;99.90;;;;;;5114293;28;20524;-47
2022/11/06 10:19:59;;;;;;;1.00;0.70;;;6.80;99.90;;;;;;5114119;28;20443;-50
2022/11/06 10:22:36;;;;;;;1.10;0.77;;;6.80;99.90;;;;;;5114157;28;20437;-48
2022/11/06 10:25:18;;;;;;;0.90;0.50;;;7.10;99.90;;;;;;5113972;28;20541;-47
2022/11/06 10:27:58;;;;;;;1.00;0.60;;;7.20;99.90;;;;;;5114044;28;20453;-48
2022/11/06 10:30:27;;;;;;;2.10;0.70;;;7.30;99.90;;;;;;5114209;28;20470;-49
2022/11/06 10:33:10;;;;;;;1.00;0.70;;;7.40;99.90;;;;;;5114373;28;20443;-48
2022/11/06 10:35:43;;;;;;;0.90;0.53;;;7.40;99.90;;;;;;5115657;28;20523;-48
2022/11/06 10:38:14;;;;;;;1.10;0.60;;;7.40;99.90;;;;;;5113817;28;20982;-49
2022/11/06 10:40:44;;;;;;;1.10;0.63;;;7.50;99.90;;;;;;5113921;28;20530;-48
2022/11/06 10:43:25;;;;;;;14.73;3.37;;;7.70;99.90;;;;;;5113672;28;20443;-48
2022/11/06 10:45:58;;;;;;;1.50;0.70;;;7.80;99.90;;;;;;5113893;28;20541;-48
2022/11/06 10:48:29;;;;;;;10.53;3.77;;;7.80;99.90;;;;;;5113963;28;20442;-47
2022/11/06 10:51:08;;;;;;;10.57;5.00;;;7.80;99.90;;;;;;5114106;28;20446;-47
2022/11/06 10:53:42;;;;;;;13.40;7.70;;;7.90;99.90;;;;;;5113625;28;20544;-50
2022/11/06 10:56:31;;;;;;;8.37;4.83;;;7.80;99.90;;;;;;5113425;28;20473;-49
2022/11/06 10:58:58;;;;;;;3.00;1.80;;;7.90;99.90;;;;;;5113212;28;20862;-47
2022/11/06 11:01:25;;;;;;;1.50;1.23;;;8.10;99.90;;;;;;5113375;28;20438;-48
2022/11/06 11:03:52;;;;;;;1130.70;300.67;;;8.10;99.90;;;;;;5112993;28;20529;-49
2022/11/06 11:06:19;;;;;;;17.33;8.27;;;8.10;99.90;;;;;;5113206;28;20513;-48
2022/11/06 11:08:49;;;;;;;2.70;1.30;;;8.20;99.90;;;;;;5113123;28;20475;-49
2022/11/06 11:11:20;;;;;;;1.37;0.80;;;8.20;99.90;;;;;;5113148;28;20533;-49
2022/11/06 11:13:48;;;;;;;1.00;0.53;;;8.20;99.90;;;;;;5112551;28;20438;-49
2022/11/06 11:16:17;;;;;;;1.60;0.90;;;8.20;99.90;;;;;;5113183;28;20573;-48
2022/11/06 11:18:44;;;;;;;1.10;0.80;;;8.20;99.90;;;;;;5112861;28;20879;-47
2022/11/06 11:21:22;;;;;;;1.57;0.50;;;8.20;99.90;;;;;;5112640;28;20526;-47
2022/11/06 11:24:06;;;;;;;1.37;0.70;;;8.20;99.90;;;;;;5112461;28;20983;-50
2022/11/06 11:26:36;;;;;;;0.90;0.53;;;8.30;99.90;;;;;;5112060;28;20518;-47
2022/11/06 11:29:13;;;;;;;1.50;0.80;;;8.20;99.90;;;;;;5112698;28;20521;-49
2022/11/06 11:31:42;;;;;;;1.20;0.60;;;8.30;99.90;;;;;;5112541;28;20958;-47
2022/11/06 11:34:17;;;;;;;0.80;0.50;;;8.30;99.90;;;;;;5112076;28;20542;-47
2022/11/06 11:36:54;;;;;;;0.90;0.50;;;8.30;99.90;;;;;;5112331;28;20556;-47
2022/11/06 11:39:25;;;;;;;1.10;0.60;;;8.30;99.90;;;;;;5112575;28;20489;-48
2022/11/06 11:41:52;;;;;;;1.10;0.60;;;8.40;99.90;;;;;;5112545;28;20444;-47
2022/11/06 11:44:20;;;;;;;1.10;0.60;;;8.40;99.90;;;;;;5111913;28;20462;-47
2022/11/06 11:46:48;;;;;;;0.83;0.47;;;8.40;99.90;;;;;;5112507;28;20522;-51
2022/11/06 11:49:30;;;;;;;1.20;0.60;;;8.40;99.90;;;;;;5111928;28;21103;-47
2022/11/06 11:51:59;;;;;;;1.00;0.60;;;8.40;99.90;;;;;;5112078;28;20884;-49
2022/11/06 11:54:30;;;;;;;0.93;0.53;;;8.40;99.90;;;;;;5112084;28;20455;-47
2022/11/06 11:57:00;;;;;;;1.10;0.70;;;8.50;99.90;;;;;;5111999;28;20557;-50
2022/11/06 11:59:29;;;;;;;1.00;0.50;;;8.50;99.90;;;;;;5111929;28;20817;-47
2022/11/06 12:01:59;;;;;;;1.40;0.60;;;8.60;99.90;;;;;;5112046;28;20482;-48
2022/11/06 12:04:29;;;;;;;1.40;0.60;;;8.50;99.90;;;;;;5111704;28;20549;-49
2022/11/06 12:07:00;;;;;;;0.90;0.47;;;8.60;99.90;;;;;;5111568;28;21011;-47
2022/11/06 12:09:32;;;;;;;2.13;1.00;;;8.60;99.90;;;;;;5111878;28;20845;-47
2022/11/06 12:12:00;;;;;;;7.03;4.57;;;8.70;99.90;;;;;;5111712;28;20445;-47
2022/11/06 12:14:33;;;;;;;1.40;0.90;;;8.70;99.90;;;;;;5112856;28;20493;-48
2022/11/06 12:17:17;;;;;;;1.03;0.60;;;8.70;99.90;;;;;;5111756;28;20476;-49
2022/11/06 12:19:50;;;;;;;1.30;0.60;;;8.70;99.90;;;;;;5111868;28;20864;-48
2022/11/06 12:22:24;;;;;;;1.20;0.70;;;8.70;99.90;;;;;;5111572;28;20482;-49
2022/11/06 12:24:56;;;;;;;1.30;0.80;;;8.70;99.90;;;;;;5112016;28;20543;-50
2022/11/06 12:27:27;;;;;;;0.93;0.60;;;8.80;99.90;;;;;;5111839;28;20518;-50
2022/11/06 12:30:03;;;;;;;1.20;0.60;;;8.80;99.90;;;;;;5112060;28;20522;-47
2022/11/06 12:32:44;;;;;;;1.00;0.60;;;8.80;99.90;;;;;;5111557;28;20446;-48
2022/11/06 12:35:19;;;;;;;1.10;0.67;;;8.80;99.90;;;;;;5111247;28;20458;-48
2022/11/06 12:37:57;;;;;;;1.10;0.50;;;8.80;99.90;;;;;;5110892;28;20477;-49
2022/11/06 12:40:29;;;;;;;0.90;0.50;;;8.90;99.90;;;;;;5111455;28;20447;-47
2022/11/06 12:43:05;;;;;;;1.10;0.70;;;8.90;99.90;;;;;;5111211;28;20943;-49
2022/11/06 12:45:47;;;;;;;1.50;1.10;;;9.00;99.90;;;;;;5111402;28;20450;-49
2022/11/06 12:48:28;;;;;;;1.00;0.60;;;9.00;99.90;;;;;;5111224;28;20481;-50
2022/11/06 12:51:02;;;;;;;1.03;0.60;;;8.90;99.90;;;;;;5111526;28;20947;-48
2022/11/06 12:53:39;;;;;;;0.90;0.40;;;9.00;99.90;;;;;;5111470;28;20442;-48
2022/11/06 12:56:16;;;;;;;1.20;0.63;;;9.00;99.90;;;;;;5111495;28;20569;-47
2022/11/06 12:58:58;;;;;;;1.10;0.60;;;9.00;99.90;;;;;;5111575;28;20529;-48
2022/11/06 13:01:42;;;;;;;1.20;0.50;;;9.10;99.90;;;;;;5111452;28;20446;-48
2022/11/06 13:04:28;;;;;;;1.10;0.60;;;9.20;99.90;;;;;;5111077;28;20541;-48
2022/11/06 13:07:28;;;;;;;1.30;0.73;;;9.20;99.90;;;;;;5111090;28;20526;-47
2022/11/06 13:10:08;;;;;;;1.00;0.60;;;9.20;99.90;;;;;;5111044;28;20439;-48
2022/11/06 13:12:46;;;;;;;1.10;0.60;;;9.20;99.90;;;;;;5111056;28;20438;-48
2022/11/06 13:15:25;;;;;;;1.07;0.67;;;9.10;99.90;;;;;;5110753;28;20561;-48
2022/11/06 13:17:59;;;;;;;1.00;0.67;;;9.10;99.90;;;;;;5111351;28;20459;-48
2022/11/06 13:20:32;;;;;;;1.45;0.60;;;9.10;99.90;;;;;;5110754;28;20809;-47
2022/11/06 13:23:06;;;;;;;1.10;0.60;;;9.10;99.90;;;;;;5111198;28;20288;-47